Terminal Aerodrome Forecast
Issued by NWS

Home | Current Version | Previous Version | Text Only | Print | Product List | Glossary Off
Versions: 1 2 3 4 5 6 7 8 9 10 11 12 13 14 15 16 17 18 19 20

000
FTUS43 KABR 241120
TAFMBG
TAF
KMBG 241120Z 2412/2512 15013KT P6SM BKN250 WS020/16040KT
     FM241400 15013KT P6SM BKN150
     FM242100 20015KT P6SM FEW250
     FM250500 27019G28KT P6SM BKN035
     FM250700 27019G30KT P6SM BKN025
     FM251100 30024G34KT P6SM BKN020=

USA.gov is the U.S. government's official web portal to all federal, state and local government web resources and services.